Boulder City, Nevada Weather observations

Data are for observation ending at time listed.
 Day   Time    Ave.   Ave.  Ave.  Vector   Max.   Stn.    Total    Solar   Ave.  
  of    of     Air    Rel.  Wind   Wind    Wind   Baro.  Precip.   Rad.    Soil  
Year   Day     Temp.  Hum.  Speed  Dir.    Gust   Pres.                    Temp. 
2024   (PST)    F      %     mph   deg.    mph     mb.     in.     W/m2     F   
------------------------------------------------------------------------------
  59   22:30   52.2    23    3.6   214      4.5   933.5    0.00       0    59.0
  59   22:40   52.4    23    4.0   227      5.0   933.5    0.00       0    58.9
  59   22:50   52.3    24    3.6   227      5.6   933.6    0.00       0    58.7
  59   23:00   50.8    26    3.6   212      4.7   933.5    0.00       0    58.6
  59   23:10   50.7    25    3.6   227      4.5   933.5    0.00       0    58.4
  59   23:20   51.2    25    3.7   218      5.0   933.4    0.00       0    58.3
  59   23:30   51.1    25    3.5   202      4.7   933.4    0.00       0    58.2
  59   23:40   50.1    26    4.7   211      6.1   933.4    0.00       0    58.1
  59   23:50   50.2    26    5.0   212      6.3   933.4    0.00       0    57.9
  60    0:00   50.3    26    4.9   220      6.1   933.3    0.00       0    57.7
  60    0:10   50.2    26    4.5   210      5.8   933.3    0.00       0    57.7
  60    0:20   49.0    28    4.9   210      6.3   933.3    0.00       0    57.6
  60    0:30   49.9    26    4.6   216      5.7   933.1    0.00       0    57.4
  60    0:40   50.5    25    4.1   212      5.6   933.1    0.00       0    57.3
  60    0:50   49.8    26    3.8   205      4.9   933.0    0.00       0    57.2
  60    1:00   49.4    26    4.2   222      5.2   933.0    0.00       0    57.1
  60    1:10   51.4    23    4.3   222      5.1   932.9    0.00       0    57.0
  60    1:20   50.8    24    4.3   213      5.2   932.8    0.00       0    56.9
  60    1:30   50.3    25    4.2   215      5.3   932.7    0.00       0    56.8
  60    1:40   49.7    26    3.9   220      5.3   932.7    0.00       0    56.6
  60    1:50   49.5    26    3.8   207      6.1   932.6    0.00       0    56.6
  60    2:00   48.6    28    4.7   226      5.7   932.5    0.00       0    56.5
  60    2:10   48.6    28    4.6   217      5.5   932.5    0.00       0    56.4
  60    2:20   48.7    27    4.2   227      5.3   932.5    0.00       0    56.2
  60    2:30   48.3    28    3.5   230      5.1   932.4    0.00       0    56.2
  60    2:40   47.9    28    3.9   228      4.6   932.4    0.00       0    56.0
  60    2:50   48.8    27    2.4   238      4.4   932.4    0.00       0    56.0
  60    3:00   48.6    27    2.4   222      3.7   932.4    0.00       0    56.0
  60    3:10   48.7    27    3.1   213      4.5   932.4    0.00       0    55.8
  60    3:20   50.3    24    4.2   212      5.9   932.4    0.00       0    55.7
  60    3:30   52.2    22    4.1   221      6.8   932.4    0.00       0    55.7
  60    3:40   51.8    23    3.8   208      5.6   932.5    0.00       0    55.6
  60    3:50   51.6    23    3.7   210      5.4   932.6    0.00       0    55.4
  60    4:00   50.5    25    3.1   197      4.8   932.6    0.00       0    55.3
  60    4:10   49.2    27    3.1   196      4.6   932.6    0.00       0    55.3
  60    4:20   48.7    28    3.3   198      4.6   932.6    0.00       0    55.2
  60    4:30   49.0    27    3.8   212      5.0   932.6    0.00       0    55.1
  60    4:40   49.2    27    3.7   220      4.9   932.6    0.00       0    55.0
  60    4:50   48.3    28    3.9   209      5.6   932.6    0.00       0    55.0
  60    5:00   48.7    28    3.7   194      5.3   932.6    0.00       0    54.9
  60    5:10   49.6    26    3.9   202      6.1   932.6    0.00       0    54.8
  60    5:20   49.9    26    2.8   208      4.0   932.6    0.00       0    54.8
  60    5:30   49.2    27    3.4   205      5.8   932.8    0.00       0    54.7
  60    5:40   49.5    26    3.1   211      4.6   932.9    0.00       0    54.6
  60    5:50   49.0    27    3.0   226      4.9   933.0    0.00       0    54.5
  60    6:00   48.7    28    2.7   234      3.9   933.0    0.00       0    54.5
  60    6:10   47.8    30    2.1   225      3.0   933.0    0.00       2    54.4
  60    6:20   47.0    31    2.4   224      4.2   933.1    0.00       8    54.3
  60    6:30   47.6    30    1.4   264      4.5   933.1    0.00      26    54.3
  60    6:40   48.1    31    2.1   207      3.8   933.2    0.00      55    54.2
  60    6:50   49.5    30    2.9   224      4.7   933.2    0.00      94    54.1
  60    7:00   51.1    29    2.6   193      4.0   933.4    0.00     129    54.1
  60    7:10   52.8    26    2.3   183      3.3   933.5    0.00     164    54.0
  60    7:20   54.0    25    2.5   153      4.2   933.7    0.00     199    54.0
  60    7:30   55.8    23    2.6   133      4.6   933.9    0.00     235    54.0
  60    7:40   58.0    22    1.6   126      2.9   934.1    0.00     273    54.1
  60    7:50   58.6    21    2.0   136      4.7   934.2    0.00     311    54.1
  60    8:00   58.1    20    2.7   166      5.2   934.4    0.00     347    54.3
  60    8:10   58.0    21    2.7   174      5.8   934.4    0.00     381    54.4
  60    8:20   58.6    21    3.0   151      6.5   934.5    0.00     414    54.6
  60    8:30   60.0    20    1.9   109      5.3   934.8    0.00     444    54.7
  60    8:40   60.6    19    2.4   116      5.3   934.8    0.00     508    54.9
  60    8:50   61.1    19    2.8   163      6.1   934.9    0.00     522    55.0
  60    9:00   61.3    19    2.0   165      6.3   934.9    0.00     216    55.1
  60    9:10   63.0    18    0.9   207      2.6   935.1    0.00      48    55.3
  60    9:20   64.2    18    2.3    87      6.6   935.2    0.00      50    55.4
  60    9:30   64.4    19    5.0   115     10.8   935.2    0.00     333    55.7
  60    9:40   63.0    19    7.6    96     12.6   935.3    0.00     659    55.8
  60    9:50   63.4    20    6.3   108     16.7   935.3    0.00     700    55.9
  60   10:00   63.8    20    4.4   125     12.7   935.2    0.00     618    56.1
  60   10:10   63.2    20    6.4   101     11.5   935.2    0.00     401    56.3
  60   10:20   63.4    20    4.8   138     12.3   935.2    0.00     578    56.5
  60   10:30   64.0    21    6.1   143     13.4   935.2    0.00     540    56.7
  60   10:40   65.2    21    5.7   151     10.9   935.1    0.00     873    56.9
  60   10:50   66.4    20    6.6   156     13.0   935.1    0.00     765    57.2
  60   11:00   66.5    20    7.1   140     12.8   935.1    0.00     540    57.5
  60   11:10   65.7    20    7.2   123     14.7   935.1    0.00     591    57.8
  60   11:20   66.6    20    6.9   110     17.1   935.1    0.00     890    58.1
  60   11:30   68.1    20    8.2   158     16.0   934.9    0.00     616    58.5
  60   11:40   67.5    20    7.8   150     18.1   934.9    0.00     489    58.8
  60   11:50   67.1    20    9.1   147     15.3   934.9    0.00     478    59.1
  60   12:00   67.0    20    8.9   144     17.8   934.7    0.00     648    59.4
  60   12:10   66.8    21    7.0   142     14.5   934.5    0.00     542    59.7
  60   12:20   67.1    21    5.7   133     16.9   934.3    0.00     584    60.0
  60   12:30   67.0    21    8.2   149     17.5   934.1    0.00     468    60.2
  60   12:40   67.1    20    6.1   117     17.7   934.1    0.00     677    60.5
  60   12:50   69.2    19    6.6   124     14.6   933.7    0.00    1005    60.8
  60   13:00   71.0    18    8.8   152     23.6   933.7    0.00     894    61.1
  60   13:10   70.8    18    9.5   155     22.0   933.7    0.00     855    61.4
  60   13:20   70.5    17   10.4   142     26.3   933.4    0.00     778    61.7
  60   13:30   70.6    17   11.8   152     25.9   933.2    0.00     731    62.1
  60   13:40   70.8    17    9.3   150     23.5   933.2    0.00     698    62.4
  60   13:50   70.6    18   10.7   151     23.9   933.2    0.00     675    62.8
  60   14:00   71.0    18   10.9   151     23.8   933.2    0.00     654    63.1
  60   14:10   71.3    17   11.4   158     23.8   933.0    0.00     633    63.6
  60   14:20   71.0    18   11.9   157     21.4   933.0    0.00     619    63.9
  60   14:30   71.5    18   10.1   155     21.3   932.9    0.00     606    64.2
  60   14:40   71.0    18    9.1   145     19.3   932.7    0.00     488    64.6
  60   14:50   70.6    20    9.9   147     20.8   932.5    0.00     411    64.8
  60   15:00   69.5    21    8.8   138     22.1   932.4    0.00     268    65.1
  60   15:10   69.0    22    8.9   136     18.7   932.2    0.00     300    65.4
  60   15:20   70.0    22    9.2   157     22.7   932.0    0.00     485    65.5
  60   15:30   70.9    22    8.8   154     20.6   931.9    0.00     388    65.6
  60   15:40   71.2    21   12.8   173     23.7   932.1    0.00     465    65.8
  60   15:50   72.6    14   10.8   201     21.0   931.8    0.00     382    65.9
  60   16:00   72.5    14   12.1   208     21.9   932.0    0.00     333    66.0
  60   16:10   72.1    14   11.7   208     22.9   932.0    0.00     305    66.1
  60   16:20   71.5    14   13.5   212     23.4   932.1    0.00     266    66.2
  60   16:30   71.2    14   12.2   207     19.5   932.1    0.00     229    66.3
  60   16:40   71.1    14   11.1   204     20.9   932.0    0.00     191    66.3
  60   16:50   70.6    14   11.7   205     23.0   931.8    0.00     149    66.3
  60   17:00   70.2    15   11.4   192     21.5   931.9    0.00      84    66.3
  60   17:10   69.5    15   13.3   191     22.6   931.8    0.00      42    66.2
  60   17:20   68.8    16   11.7   180     18.8   931.8    0.00      16    66.2
  60   17:30   68.3    16   10.8   180     20.7   931.8    0.00      10    66.1
  60   17:40   67.7    17   10.2   188     18.0   931.8    0.00       5    66.0
  60   17:50   66.8    18    8.0   206     13.4   931.9    0.00       3    65.9
  60   18:00   66.0    19    7.9   200     13.3   931.7    0.00       1    65.7
  60   18:10   65.5    20    7.2   199     12.5   931.6    0.00       0    65.5
  60   18:20   64.8    21    7.4   191     11.3   931.7    0.00       0    65.4
  60   18:30   64.6    24    7.9   198     14.9   931.7    0.00       0    65.2
  60   18:40   64.7    23    9.3   183     17.0   931.7    0.00       0    65.1
  60   18:50   65.1    22   10.8   176     16.1   931.7    0.00       0    64.9
  60   19:00   65.0    20   11.8   178     18.6   931.7    0.00       0    64.8
  60   19:10   64.4    21   10.0   177     16.5   931.8    0.00       0    64.6
  60   19:20   64.2    21    9.6   182     15.6   931.9    0.00       0    64.4
  60   19:30   63.3    22    7.8   189     15.3   931.9    0.00       0    64.2
  60   19:40   63.7    22    9.3   187     16.8   931.9    0.00       0    64.1
  60   19:50   63.5    22    9.0   168     16.7   931.9    0.00       0    63.9
  60   20:00   63.3    23    8.6   169     16.8   932.0    0.00       0    63.8
  60   20:10   63.0    24    9.4   178     16.0   932.1    0.00       0    63.6
  60   20:20   63.3    24    9.9   171     16.1   932.2    0.00       0    63.5
  60   20:30   62.7    25    7.2   201     15.0   932.3    0.00       0    63.4
  60   20:40   61.7    26    6.9   199     12.0   932.3    0.00       0    63.2
  60   20:50   61.8    27    8.7   192     13.2   932.3    0.00       0    63.1
  60   21:00   61.5    28    7.5   184     12.6   932.3    0.00       0    63.0
  60   21:10   60.8    28    5.4   204      9.1   932.3    0.00       0    62.9
  60   21:20   60.4    29    5.2   200     10.4   932.3    0.00       0    62.7
  60   21:30   60.4    29    7.0   184     13.7   932.3    0.00       0    62.6
  60   21:40   61.2    29    8.1   165     16.4   932.3    0.00       0    62.5
  60   21:50   61.1    29    9.6   169     17.2   932.3    0.00       0    62.4
  60   22:00   60.7    30    8.9   173     14.2   932.4    0.00       0    62.3
  60   22:10   60.2    30    8.0   172     12.6   932.4    0.00       0    62.2
  60   22:20   59.8    31    7.1   163     12.7   932.4    0.00       0    62.0

Return to Boulder City, Nevada graphs page.


Western Regional Climate Center,wrcc@dri.edu